createdAt,value
2023-03-11T00:01:23.253Z,94.07
2023-03-11T00:06:26.541Z,93.99
2023-03-11T00:11:29.702Z,94.24
2023-03-11T00:16:35.271Z,94.25
2023-03-11T00:21:38.359Z,94.31
2023-03-11T00:26:41.362Z,94.31
2023-03-11T00:31:44.376Z,94.33
2023-03-11T00:36:47.762Z,93.92
2023-03-11T00:41:51.940Z,94.00
2023-03-11T00:46:54.906Z,93.99
2023-03-11T00:51:57.784Z,93.86
2023-03-11T00:57:00.707Z,93.85
2023-03-11T01:02:03.698Z,93.97
2023-03-11T01:07:06.630Z,94.06
2023-03-11T01:12:09.554Z,94.02
2023-03-11T01:17:12.517Z,94.07
2023-03-11T01:22:16.155Z,94.11
2023-03-11T01:27:19.075Z,93.97
2023-03-11T01:32:22.326Z,93.96
2023-03-11T01:37:25.535Z,94.14
2023-03-11T01:42:28.449Z,94.25
2023-03-11T01:47:40.173Z,93.92
2023-03-11T01:52:44.833Z,94.11
2023-03-11T01:57:48.430Z,94.22
2023-03-11T02:02:58.926Z,94.10
2023-03-11T02:08:02.137Z,94.11
2023-03-11T02:13:05.172Z,94.16
2023-03-11T02:18:09.721Z,94.04
2023-03-11T02:23:18.978Z,94.01
2023-03-11T02:28:25.183Z,94.25
2023-03-11T02:33:33.379Z,94.49
2023-03-11T02:38:36.752Z,94.71
2023-03-11T02:43:45.945Z,94.72
2023-03-11T02:48:49.688Z,94.50
2023-03-11T02:53:59.866Z,94.56
2023-03-11T02:59:03.166Z,94.76
2023-03-11T03:04:06.248Z,94.88
2023-03-11T03:09:09.153Z,94.68
2023-03-11T03:14:12.193Z,94.96
2023-03-11T03:19:15.070Z,95.14
2023-03-11T03:24:17.998Z,94.99
2023-03-11T03:29:20.910Z,94.94
2023-03-11T03:34:24.065Z,94.61
2023-03-11T03:39:28.789Z,94.86
2023-03-11T03:44:33.928Z,94.81
2023-03-11T03:49:36.846Z,94.74
2023-03-11T03:54:39.779Z,94.78
2023-03-11T03:59:42.760Z,94.84
2023-03-11T04:04:47.630Z,94.77
2023-03-11T04:09:50.594Z,94.82
2023-03-11T04:14:56.524Z,95.05
2023-03-11T04:19:59.925Z,95.04
2023-03-11T04:25:06.895Z,94.97
2023-03-11T04:30:10.925Z,94.92
2023-03-11T04:35:13.919Z,94.79
2023-03-11T04:40:17.774Z,94.72
2023-03-11T04:45:23.859Z,94.74
2023-03-11T04:50:26.851Z,94.85
2023-03-11T04:55:33.610Z,94.93
2023-03-11T05:00:36.916Z,94.90
2023-03-11T05:05:40.122Z,94.76
2023-03-11T05:10:45.053Z,94.68
2023-03-11T05:15:48.896Z,94.69
2023-03-11T05:20:53.458Z,94.57
2023-03-11T05:25:56.558Z,94.49
2023-03-11T05:30:59.754Z,94.40
2023-03-11T05:36:08.915Z,94.33
2023-03-11T05:41:11.874Z,94.27
2023-03-11T05:46:15.167Z,94.18
2023-03-11T05:51:18.405Z,94.32
2023-03-11T05:56:23.396Z,94.58
2023-03-11T06:01:29.604Z,94.57
2023-03-11T06:06:33.323Z,94.35
2023-03-11T06:11:39.823Z,94.11
2023-03-11T06:16:43.153Z,94.00
2023-03-11T06:21:46.191Z,93.93
2023-03-11T06:26:52.932Z,93.46
2023-03-11T06:31:56.728Z,93.49
2023-03-11T06:37:00.390Z,92.86
2023-03-11T06:42:04.042Z,92.75
2023-03-11T06:47:09.692Z,92.79
2023-03-11T06:52:12.797Z,92.72
2023-03-11T06:57:16.929Z,92.23
2023-03-11T07:02:19.916Z,92.28
2023-03-11T07:07:22.900Z,92.21
2023-03-11T07:12:26.482Z,91.83
2023-03-11T07:17:32.827Z,92.11
2023-03-11T07:22:36.194Z,91.53
2023-03-11T07:27:41.614Z,91.49
2023-03-11T07:32:47.183Z,91.72
2023-03-11T07:37:50.283Z,91.93
2023-03-11T07:42:53.335Z,91.78
2023-03-11T07:47:56.388Z,91.39
2023-03-11T07:52:59.343Z,91.14
2023-03-11T07:58:02.484Z,90.89
2023-03-11T08:03:08.809Z,90.76
2023-03-11T08:08:11.999Z,90.20
2023-03-11T08:13:15.067Z,90.28
2023-03-11T08:18:18.353Z,90.14
2023-03-11T08:23:21.292Z,90.32
2023-03-11T08:28:24.382Z,90.34
2023-03-11T08:33:27.944Z,90.38
2023-03-11T08:38:31.020Z,89.64
2023-03-11T08:43:34.368Z,89.79
2023-03-11T08:48:38.079Z,89.34
2023-03-11T08:53:41.661Z,89.15
2023-03-11T08:58:45.408Z,89.09
2023-03-11T09:03:48.763Z,89.71
2023-03-11T09:08:51.875Z,89.22
2023-03-11T09:13:55.397Z,89.01
2023-03-11T09:19:00.445Z,89.54
2023-03-11T09:24:05.135Z,89.59
2023-03-11T09:29:08.038Z,89.03
2023-03-11T09:34:16.047Z,89.34
2023-03-11T09:39:19.838Z,89.24
2023-03-11T09:44:45.274Z,88.77
2023-03-11T09:50:16.940Z,88.82
2023-03-11T09:55:45.658Z,88.04
2023-03-11T10:00:52.598Z,88.10
2023-03-11T10:06:31.148Z,87.86
2023-03-11T10:12:08.042Z,87.95
2023-03-11T10:17:58.900Z,87.89
2023-03-11T10:23:15.782Z,86.86
2023-03-11T10:28:37.688Z,87.04
2023-03-11T10:34:16.273Z,86.69
2023-03-11T10:39:42.254Z,86.21
2023-03-11T10:44:52.551Z,86.28
2023-03-11T10:49:57.977Z,86.38
2023-03-11T10:55:03.545Z,86.21
2023-03-11T11:00:30.558Z,86.39
2023-03-11T11:05:42.324Z,85.75
2023-03-11T11:10:56.904Z,85.56
2023-03-11T11:16:23.280Z,85.21
2023-03-11T11:21:37.507Z,85.04
2023-03-11T11:26:41.258Z,84.54
2023-03-11T11:31:49.060Z,85.00
2023-03-11T11:37:07.557Z,84.72
2023-03-11T11:42:14.873Z,84.61
2023-03-11T11:47:26.289Z,84.36
2023-03-11T11:52:40.076Z,83.88
2023-03-11T11:57:43.001Z,83.79
2023-03-11T12:03:30.713Z,83.66
2023-03-11T12:09:01.177Z,83.29
2023-03-11T12:14:28.008Z,82.70
2023-03-11T12:19:47.037Z,82.68
2023-03-11T12:25:10.285Z,82.67
2023-03-11T12:30:27.315Z,82.32
2023-03-11T12:35:35.808Z,82.03
2023-03-11T12:40:47.776Z,81.22
2023-03-11T12:45:53.495Z,80.58
2023-03-11T12:51:00.177Z,79.31
2023-03-11T12:56:42.629Z,79.40
2023-03-11T13:02:24.704Z,79.16
2023-03-11T13:07:43.665Z,78.64
2023-03-11T13:12:51.406Z,77.63
2023-03-11T13:18:05.411Z,77.15
2023-03-11T13:23:14.264Z,76.85
2023-03-11T13:28:45.318Z,76.92
2023-03-11T13:34:04.918Z,76.36
2023-03-11T13:39:39.892Z,76.28
2023-03-11T13:44:43.547Z,75.86
2023-03-11T13:50:20.698Z,75.86
2023-03-11T13:55:40.560Z,76.09
2023-03-11T14:00:56.896Z,75.94
2023-03-11T14:06:10.822Z,74.51
2023-03-11T14:11:18.120Z,74.27
2023-03-11T14:16:36.479Z,74.18
2023-03-11T14:21:51.411Z,75.11
2023-03-11T14:26:59.623Z,75.54
2023-03-11T14:32:25.965Z,75.95
2023-03-11T14:37:37.509Z,76.54
2023-03-11T14:42:44.074Z,76.61
2023-03-11T14:48:03.770Z,76.90
2023-03-11T14:53:16.652Z,77.45
2023-03-11T14:59:07.974Z,78.25
2023-03-11T15:04:33.224Z,79.16
2023-03-11T15:09:41.507Z,80.40
2023-03-11T15:14:51.800Z,81.31
2023-03-11T15:19:56.139Z,81.41
2023-03-11T15:25:03.084Z,81.42
2023-03-11T15:30:24.609Z,81.54
2023-03-11T15:35:30.896Z,81.15
2023-03-11T15:40:44.870Z,80.47
2023-03-11T15:45:49.290Z,79.76
2023-03-11T15:51:06.635Z,79.27
2023-03-11T15:56:20.158Z,79.07
2023-03-11T16:01:28.563Z,78.94
2023-03-11T16:06:31.578Z,78.31
2023-03-11T16:11:41.156Z,77.91
2023-03-11T16:16:47.728Z,77.97
2023-03-11T16:21:50.925Z,77.85
2023-03-11T16:26:54.602Z,77.69
2023-03-11T16:31:57.622Z,77.82
2023-03-11T16:37:00.947Z,78.07
2023-03-11T16:42:04.285Z,78.32
2023-03-11T16:47:07.386Z,78.14
2023-03-11T16:52:10.527Z,78.01
2023-03-11T16:57:13.666Z,77.58
2023-03-11T17:02:16.749Z,77.75
2023-03-11T17:07:19.939Z,77.33
2023-03-11T17:12:27.403Z,76.03
2023-03-11T17:17:30.383Z,76.25
2023-03-11T17:22:33.966Z,76.35
2023-03-11T17:27:38.413Z,76.73
2023-03-11T17:38:02.884Z,77.61
2023-03-11T17:43:05.999Z,77.52
2023-03-11T17:48:09.233Z,77.06
2023-03-11T17:53:12.131Z,76.49
2023-03-11T17:58:15.204Z,76.00
2023-03-11T18:03:18.104Z,75.31
2023-03-11T18:08:21.126Z,74.67
2023-03-11T18:13:24.648Z,74.43
2023-03-11T18:18:30.321Z,74.64
2023-03-11T18:23:34.617Z,74.63
2023-03-11T18:28:38.075Z,74.54
2023-03-11T18:33:46.593Z,74.61
2023-03-11T18:38:50.708Z,74.67
2023-03-11T18:43:58.347Z,75.11
2023-03-11T18:49:03.932Z,74.93
2023-03-11T18:54:07.232Z,74.68
2023-03-11T18:59:12.206Z,74.75
2023-03-11T19:04:15.787Z,74.84
2023-03-11T19:09:19.052Z,75.10
2023-03-11T19:14:22.354Z,75.26
2023-03-11T19:19:25.579Z,75.67
2023-03-11T19:24:28.924Z,75.72
2023-03-11T19:29:32.254Z,75.89
2023-03-11T19:34:35.380Z,76.15
2023-03-11T19:39:38.501Z,76.36
2023-03-11T19:44:44.182Z,76.68
2023-03-11T19:49:53.114Z,76.78
2023-03-11T19:54:56.314Z,76.90
2023-03-11T19:59:59.844Z,77.15
2023-03-11T20:05:03.780Z,77.38
2023-03-11T20:10:07.563Z,77.75
2023-03-11T20:15:11.429Z,78.01
2023-03-11T20:20:14.995Z,78.09
2023-03-11T20:25:18.215Z,78.37
2023-03-11T20:30:22.011Z,78.10
2023-03-11T20:35:25.118Z,78.24
2023-03-11T20:40:28.252Z,78.29
2023-03-11T20:45:31.608Z,78.24
2023-03-11T20:50:35.207Z,78.46
2023-03-11T20:55:41.029Z,78.54
2023-03-11T21:00:44.314Z,78.74
2023-03-11T21:05:47.605Z,78.89
2023-03-11T21:10:51.165Z,79.29
2023-03-11T21:15:55.265Z,79.24
2023-03-11T21:20:58.612Z,79.72
2023-03-11T21:26:04.260Z,79.71
2023-03-11T21:31:16.995Z,79.97
2023-03-11T21:36:20.205Z,79.98
2023-03-11T21:41:26.786Z,80.07
2023-03-11T21:46:32.376Z,79.96
2023-03-11T21:51:35.701Z,80.26
2023-03-11T21:56:39.881Z,80.36
2023-03-11T22:01:43.425Z,80.62
2023-03-11T22:06:46.598Z,80.68
2023-03-11T22:11:51.956Z,80.75
2023-03-11T22:16:55.123Z,81.13
2023-03-11T22:21:58.570Z,81.29
2023-03-11T22:27:01.800Z,81.43
2023-03-11T22:32:05.634Z,81.57
2023-03-11T22:37:11.691Z,81.69
2023-03-11T22:42:14.726Z,81.71
2023-03-11T22:47:17.824Z,82.05
2023-03-11T22:52:21.194Z,81.86
2023-03-11T22:57:27.048Z,82.04
2023-03-11T23:02:30.275Z,82.16
2023-03-11T23:07:44.571Z,82.57
2023-03-11T23:12:47.977Z,83.07
2023-03-11T23:17:51.022Z,82.86
2023-03-11T23:22:54.068Z,82.92
2023-03-11T23:27:58.032Z,83.21
2023-03-11T23:33:09.047Z,83.33
2023-03-11T23:38:15.333Z,83.66
2023-03-11T23:43:18.403Z,83.85
2023-03-11T23:48:27.328Z,83.70
2023-03-11T23:53:32.394Z,83.76
2023-03-11T23:58:35.592Z,83.81
